Time;durP1;ratioP1;P1;durP2;ratioP2;P2;SDS_P1;SDS_P2;PMS_P1;PMS_P2;Temp;Humidity;BMP_temperature;BMP_pressure;BME280_temperature;BME280_humidity;BME280_pressure;Samples;Min_cycle;Max_cycle;Signal;HPM_P1;HPM_P2
2022/03/12 00:01:10;;;;;;;12.27;6.63;;;;;;;18.87;46.25;100389.97;5051126;28;20430;-62
2022/03/12 00:03:39;;;;;;;11.20;6.80;;;;;;;18.87;46.05;100395.69;5051117;28;20662;-62
2022/03/12 00:06:06;;;;;;;15.70;6.57;;;;;;;18.85;46.26;100398.13;5050697;28;20218;-62
2022/03/12 00:08:46;;;;;;;13.73;7.30;;;;;;;18.87;46.26;100398.56;5046540;28;20440;-62
2022/03/12 00:11:19;;;;;;;11.23;6.80;;;;;;;18.88;46.34;100405.13;5031069;28;20462;-62
2022/03/12 00:13:45;;;;;;;10.53;6.03;;;;;;;18.87;46.17;100401.41;5031302;28;20423;-62
2022/03/12 00:16:14;;;;;;;14.57;7.13;;;;;;;18.87;46.12;100407.13;5031542;28;20423;-62
2022/03/12 00:18:42;;;;;;;10.87;6.80;;;;;;;18.88;46.05;100408.81;5031316;28;20657;-62
2022/03/12 00:21:13;;;;;;;10.63;6.70;;;;;;;18.87;46.01;100409.19;5039074;28;20472;-62
2022/03/12 00:23:41;;;;;;;12.53;6.90;;;;;;;18.88;45.98;100414.53;5051315;28;20422;-62
2022/03/12 00:26:07;;;;;;;12.93;6.10;;;;;;;18.87;46.02;100415.72;5050895;28;20936;-62
2022/03/12 00:28:32;;;;;;;10.37;5.60;;;;;;;18.87;46.19;100412.84;5050741;28;20418;-62
2022/03/12 00:30:59;;;;;;;11.77;6.50;;;;;;;18.87;46.04;100414.91;5050637;28;20223;-62
2022/03/12 00:33:25;;;;;;;11.83;6.77;;;;;;;18.90;45.77;100417.84;5050954;28;20171;-62
2022/03/12 00:35:51;;;;;;;11.60;6.40;;;;;;;18.87;46.27;100429.22;5050601;28;20425;-62
2022/03/12 00:38:17;;;;;;;14.40;7.13;;;;;;;18.87;46.34;100430.03;5051128;28;20479;-62
2022/03/12 00:40:43;;;;;;;9.17;6.47;;;;;;;18.85;46.43;100429.59;5050708;28;20446;-62
2022/03/12 00:43:09;;;;;;;9.53;5.77;;;;;;;18.88;46.17;100425.13;5051257;28;20183;-62
2022/03/12 00:45:35;;;;;;;10.57;6.03;;;;;;;18.85;46.23;100425.88;5050936;28;20179;-62
2022/03/12 00:48:01;;;;;;;9.30;6.20;;;;;;;18.88;46.45;100436.59;5047330;28;20433;-62
2022/03/12 00:50:26;;;;;;;9.60;6.50;;;;;;;18.85;46.44;100426.72;5032463;28;20459;-62
2022/03/12 00:52:51;;;;;;;10.23;6.67;;;;;;;18.84;46.39;100421.38;5047612;28;20179;-62
2022/03/12 00:55:17;;;;;;;10.73;6.13;;;;;;;18.82;46.65;100433.19;5030695;28;20625;-62
2022/03/12 00:57:43;;;;;;;9.73;6.10;;;;;;;18.88;46.33;100436.59;5030162;28;20164;-62
2022/03/12 01:00:13;;;;;;;12.07;7.67;;;;;;;18.84;46.45;100436.53;5030091;28;20173;-62
2022/03/12 01:02:39;;;;;;;7.73;5.67;;;;;;;18.85;46.56;100432.44;5029897;28;20620;-62
2022/03/12 01:05:05;;;;;;;11.17;6.73;;;;;;;18.84;46.22;100441.41;5029016;28;20446;-62
2022/03/12 01:07:30;;;;;;;10.03;6.70;;;;;;;18.87;46.38;100441.47;5030034;28;20187;-62
2022/03/12 01:09:56;;;;;;;9.53;5.80;;;;;;;18.85;46.35;100440.19;5032591;28;20235;-62
2022/03/12 01:12:21;;;;;;;8.73;5.73;;;;;;;18.86;46.37;100430.44;5030016;28;20549;-62
2022/03/12 01:14:47;;;;;;;8.33;5.83;;;;;;;18.87;46.35;100438.59;5032470;28;20195;-62
2022/03/12 01:17:12;;;;;;;11.40;6.10;;;;;;;18.86;46.54;100436.97;5049762;28;20571;-62
2022/03/12 01:19:38;;;;;;;10.40;5.90;;;;;;;18.86;46.42;100444.72;5049871;28;20164;-62
2022/03/12 01:22:06;;;;;;;7.43;5.03;;;;;;;18.85;46.51;100443.91;5050104;28;20195;-62
2022/03/12 01:24:33;;;;;;;9.50;5.83;;;;;;;18.84;46.12;100458.56;5049947;28;20164;-62
2022/03/12 01:26:58;;;;;;;11.37;6.03;;;;;;;18.85;46.53;100448.78;5031433;28;20976;-62
2022/03/12 01:29:25;;;;;;;9.20;5.53;;;;;;;18.84;46.41;100453.69;5047499;28;20485;-62
2022/03/12 01:31:50;;;;;;;9.03;5.87;;;;;;;18.84;46.73;100447.13;5048458;28;20191;-62
2022/03/12 01:34:16;;;;;;;9.73;6.47;;;;;;;18.84;46.36;100447.97;5049562;28;20473;-62
2022/03/12 01:36:41;;;;;;;9.47;5.83;;;;;;;18.84;46.81;100447.97;5037683;28;20217;-62
2022/03/12 01:39:06;;;;;;;12.20;6.37;;;;;;;18.84;46.42;100445.09;5029383;28;20259;-62
2022/03/12 01:41:32;;;;;;;10.17;6.17;;;;;;;18.86;46.31;100445.53;5029615;28;20180;-62
2022/03/12 01:43:59;;;;;;;9.73;5.57;;;;;;;18.86;46.42;100450.44;5029642;28;20172;-62
2022/03/12 01:46:31;;;;;;;10.30;6.73;;;;;;;18.84;46.42;100456.53;5029619;28;20239;-62
2022/03/12 01:49:00;;;;;;;9.80;5.63;;;;;;;18.88;46.44;100459.47;5028993;28;20427;-62
2022/03/12 01:51:28;;;;;;;9.70;5.90;;;;;;;18.82;46.58;100452.41;5040045;28;20809;-62
2022/03/12 01:53:54;;;;;;;13.00;6.63;;;;;;;18.85;46.45;100454.50;5049705;28;20497;-62
2022/03/12 01:56:20;;;;;;;9.50;6.17;;;;;;;18.86;46.54;100444.72;5049623;28;20453;-62
2022/03/12 01:58:47;;;;;;;9.50;5.70;;;;;;;18.86;46.46;100442.69;5048911;28;20179;-62
2022/03/12 02:01:13;;;;;;;9.20;5.50;;;;;;;18.84;46.45;100445.09;5031394;28;20175;-62
2022/03/12 02:03:39;;;;;;;8.67;6.10;;;;;;;18.86;46.44;100442.69;5032027;28;20438;-62
2022/03/12 02:06:05;;;;;;;8.50;5.70;;;;;;;18.83;46.45;100440.59;5049598;28;20450;-62
2022/03/12 02:08:30;;;;;;;8.70;5.10;;;;;;;18.86;46.86;100444.72;5045763;28;20188;-62
2022/03/12 02:10:59;;;;;;;8.70;5.83;;;;;;;18.86;46.35;100447.59;5052250;28;20500;-62
2022/03/12 02:13:29;;;;;;;8.23;5.60;;;;;;;18.84;46.45;100442.25;5052961;28;20184;-62
2022/03/12 02:16:07;;;;;;;8.37;5.63;;;;;;;18.79;46.67;100445.41;5053313;28;20402;-62
2022/03/12 02:18:32;;;;;;;12.77;6.10;;;;;;;18.82;46.63;100447.50;5052339;28;20398;-62
2022/03/12 02:20:58;;;;;;;9.27;6.53;;;;;;;18.82;46.59;100450.34;5052859;28;20479;-62
2022/03/12 02:23:23;;;;;;;9.60;5.70;;;;;;;18.82;46.74;100449.56;5053145;28;20266;-62
2022/03/12 02:25:49;;;;;;;10.37;6.07;;;;;;;18.80;46.53;100452.78;5053336;28;20175;-62
2022/03/12 02:28:18;;;;;;;9.73;6.23;;;;;;;18.80;46.64;100458.50;5053079;28;20168;-62
2022/03/12 02:30:55;;;;;;;9.60;5.73;;;;;;;18.83;46.73;100462.63;5052814;28;20238;-62
2022/03/12 02:33:24;;;;;;;8.00;5.63;;;;;;;18.81;46.34;100460.16;5052809;28;20418;-62
2022/03/12 02:35:53;;;;;;;8.60;5.37;;;;;;;18.82;46.45;100466.72;5053500;28;20948;-62
2022/03/12 02:38:21;;;;;;;8.20;5.53;;;;;;;18.86;46.38;100462.69;5052741;28;20425;-62
2022/03/12 02:40:50;;;;;;;7.60;4.90;;;;;;;18.83;46.48;100463.47;5052752;28;20406;-62
2022/03/12 02:43:20;;;;;;;7.50;5.60;;;;;;;18.85;46.89;100471.66;5052708;28;20897;-62
2022/03/12 02:45:48;;;;;;;9.77;5.80;;;;;;;18.85;46.34;100472.50;5052884;28;20475;-62
2022/03/12 02:48:13;;;;;;;9.10;5.33;;;;;;;18.85;46.50;100463.06;5038694;28;20423;-62
2022/03/12 02:50:41;;;;;;;7.37;5.40;;;;;;;18.84;46.47;100458.56;5036623;28;20603;-62
2022/03/12 02:53:07;;;;;;;6.87;4.93;;;;;;;18.80;47.18;100464.22;5052520;28;20210;-62
2022/03/12 02:55:34;;;;;;;10.03;5.50;;;;;;;18.83;46.43;100465.50;5052835;28;20813;-62
2022/03/12 02:58:00;;;;;;;8.20;5.10;;;;;;;18.83;46.78;100463.47;5052855;28;20422;-62
2022/03/12 03:00:25;;;;;;;7.43;4.73;;;;;;;18.81;46.47;100454.44;5050105;28;20411;-62
2022/03/12 03:02:54;;;;;;;9.00;5.10;;;;;;;18.83;46.66;100462.63;5052535;28;20176;-62
2022/03/12 03:05:25;;;;;;;8.73;5.10;;;;;;;18.81;46.65;100457.28;5052384;28;20207;-62
2022/03/12 03:07:56;;;;;;;9.03;5.43;;;;;;;18.80;46.54;100464.22;5049863;28;20453;-62
2022/03/12 03:10:42;;;;;;;8.20;5.30;;;;;;;18.84;46.65;100465.13;5051496;28;20473;-62
2022/03/12 03:13:16;;;;;;;10.10;5.97;;;;;;;18.84;46.62;100459.41;5050724;28;20824;-62
2022/03/12 03:15:49;;;;;;;8.23;5.57;;;;;;;18.80;46.73;100467.09;5052253;28;20413;-62
2022/03/12 03:18:16;;;;;;;9.00;5.03;;;;;;;18.82;46.77;100466.72;5052343;28;20457;-62
2022/03/12 03:20:42;;;;;;;8.37;5.37;;;;;;;18.83;46.47;100466.34;5051639;28;20575;-62
2022/03/12 03:23:08;;;;;;;9.47;5.43;;;;;;;18.81;46.61;100474.47;5052151;28;20489;-62
2022/03/12 03:25:34;;;;;;;8.70;4.90;;;;;;;18.80;46.62;100483.41;5052324;28;20429;-62
2022/03/12 03:28:00;;;;;;;8.83;5.20;;;;;;;18.79;46.61;100468.31;5051159;28;20453;-62
2022/03/12 03:30:25;;;;;;;7.17;5.10;;;;;;;18.82;46.46;100478.97;5051394;28;20233;-62
2022/03/12 03:32:51;;;;;;;9.50;5.53;;;;;;;18.83;46.30;100485.53;5051713;28;20180;-62
2022/03/12 03:35:16;;;;;;;7.60;5.00;;;;;;;18.81;46.46;100488.75;5048679;28;20541;-62
2022/03/12 03:37:42;;;;;;;8.07;5.40;;;;;;;18.86;46.34;100491.31;5050767;28;20204;-62
2022/03/12 03:40:08;;;;;;;8.50;5.17;;;;;;;18.88;47.26;100490.94;5051491;28;20204;-62
2022/03/12 03:42:33;;;;;;;8.13;5.27;;;;;;;18.79;46.65;100496.91;5050994;28;20195;-62
2022/03/12 03:45:02;;;;;;;8.10;4.80;;;;;;;18.85;46.50;100501.09;5046187;28;20797;-62
2022/03/12 03:47:28;;;;;;;10.17;5.03;;;;;;;18.85;46.41;100501.09;5031960;28;20204;-62
2022/03/12 03:49:54;;;;;;;7.40;4.50;;;;;;;18.84;46.52;100505.19;5031495;28;20824;-62
2022/03/12 03:52:19;;;;;;;6.50;4.40;;;;;;;18.82;46.53;100510.44;5049813;28;20892;-62
2022/03/12 03:54:45;;;;;;;7.53;5.10;;;;;;;18.82;46.41;100512.47;5051785;28;20410;-62
2022/03/12 03:57:13;;;;;;;8.00;4.90;;;;;;;18.80;46.69;100512.84;5051692;28;20175;-62
2022/03/12 03:59:39;;;;;;;7.27;5.00;;;;;;;18.81;46.71;100528.81;5050980;28;20176;-61
2022/03/12 04:02:05;;;;;;;7.83;3.90;;;;;;;18.81;46.85;100531.66;5051620;28;20448;-61
2022/03/12 04:04:36;;;;;;;5.60;4.20;;;;;;;18.80;46.60;100532.88;5051619;28;20738;-61
2022/03/12 04:07:03;;;;;;;7.43;4.90;;;;;;;18.81;46.56;100534.53;5051372;28;20213;-62
2022/03/12 04:09:29;;;;;;;6.50;5.33;;;;;;;18.84;46.56;100533.78;5038240;28;20466;-62
2022/03/12 04:11:55;;;;;;;9.30;4.77;;;;;;;18.82;46.66;100541.09;5033412;28;20427;-62
2022/03/12 04:14:20;;;;;;;7.50;4.90;;;;;;;18.80;46.67;100532.03;5050959;28;20758;-62
2022/03/12 04:16:46;;;;;;;7.10;5.00;;;;;;;18.81;46.54;100545.97;5051444;28;20172;-62
2022/03/12 04:19:13;;;;;;;7.10;4.90;;;;;;;18.78;46.79;100538.16;5050640;28;20635;-62
2022/03/12 04:21:40;;;;;;;7.20;4.73;;;;;;;18.81;46.89;100540.25;5051155;28;20614;-62
2022/03/12 04:24:06;;;;;;;7.47;5.27;;;;;;;18.83;46.43;100534.16;5051008;28;20505;-62
2022/03/12 04:26:35;;;;;;;7.20;4.73;;;;;;;18.83;47.01;100537.84;5051194;28;21036;-62
2022/03/12 04:29:02;;;;;;;5.93;4.03;;;;;;;18.83;46.56;100549.28;5050570;28;20257;-62
2022/03/12 04:31:28;;;;;;;8.30;4.53;;;;;;;18.81;46.32;100551.69;5050887;28;20446;-62
2022/03/12 04:33:56;;;;;;;7.10;5.23;;;;;;;18.80;46.40;100550.03;5049676;28;20433;-62
2022/03/12 04:36:21;;;;;;;8.33;5.70;;;;;;;18.80;46.55;100544.31;5050920;28;20180;-62
2022/03/12 04:38:48;;;;;;;7.37;5.13;;;;;;;18.82;46.85;100541.91;5051015;28;20457;-62
2022/03/12 04:41:14;;;;;;;5.97;4.40;;;;;;;18.78;46.58;100546.75;5050360;28;20176;-62
2022/03/12 04:43:43;;;;;;;7.03;4.77;;;;;;;18.82;46.61;100547.63;5050725;28;20417;-62
2022/03/12 04:46:08;;;;;;;7.83;4.90;;;;;;;18.82;47.37;100541.91;5049228;28;20185;-62
2022/03/12 04:48:34;;;;;;;5.80;4.27;;;;;;;18.81;46.75;100548.81;5031152;28;20496;-61
2022/03/12 04:50:59;;;;;;;7.40;4.80;;;;;;;18.78;46.59;100538.16;5037044;28;20655;-61
2022/03/12 04:53:25;;;;;;;7.40;4.47;;;;;;;18.82;46.63;100541.09;5050631;28;20297;-61
2022/03/12 04:55:50;;;;;;;7.30;4.97;;;;;;;18.82;46.38;100541.09;5050086;28;20218;-61
2022/03/12 04:58:16;;;;;;;7.23;4.90;;;;;;;18.81;46.54;100540.25;5033935;28;20188;-61
2022/03/12 05:00:42;;;;;;;5.43;4.00;;;;;;;18.80;46.71;100544.31;5030171;28;20187;-62
2022/03/12 05:03:15;;;;;;;7.00;4.43;;;;;;;18.79;46.70;100544.69;5013185;28;20169;-62
2022/03/12 05:05:42;;;;;;;6.80;4.57;;;;;;;18.80;46.77;100544.31;5029942;28;20223;-62
2022/03/12 05:08:17;;;;;;;5.80;4.30;;;;;;;18.80;46.50;100549.19;5014225;28;20430;-62
2022/03/12 05:10:44;;;;;;;8.37;5.10;;;;;;;18.79;46.73;100554.09;5037815;28;20510;-62
2022/03/12 05:13:12;;;;;;;7.73;4.67;;;;;;;18.77;47.00;100555.69;5050492;28;20422;-62
2022/03/12 05:15:38;;;;;;;7.03;4.37;;;;;;;18.77;46.51;100549.97;5050686;28;20414;-62
2022/03/12 05:18:12;;;;;;;7.40;4.67;;;;;;;18.79;46.62;100553.28;5031993;28;20437;-62
2022/03/12 05:20:39;;;;;;;6.27;4.23;;;;;;;18.80;46.58;100550.03;5049759;28;20183;-62
2022/03/12 05:23:07;;;;;;;7.30;5.27;;;;;;;18.77;46.88;100553.63;5050173;28;21012;-62
2022/03/12 05:25:34;;;;;;;7.43;5.30;;;;;;;18.76;46.70;100552.00;5048100;28;20936;-62
2022/03/12 05:27:59;;;;;;;6.60;4.10;;;;;;;18.77;47.16;100550.78;5030605;28;20470;-62
2022/03/12 05:30:27;;;;;;;6.53;4.67;;;;;;;18.78;46.77;100546.75;5029562;28;20451;-62
2022/03/12 05:32:52;;;;;;;6.40;4.03;;;;;;;18.81;47.27;100554.53;5033254;28;20175;-62
2022/03/12 05:35:21;;;;;;;7.20;4.50;;;;;;;18.76;46.69;100554.03;5049603;28;20839;-62
2022/03/12 05:37:53;;;;;;;7.17;4.70;;;;;;;18.77;46.65;100555.69;5049940;28;20237;-62
2022/03/12 05:40:25;;;;;;;5.30;4.03;;;;;;;18.75;46.69;100558.91;5049276;28;20414;-62
2022/03/12 05:42:51;;;;;;;6.93;4.60;;;;;;;18.79;46.63;100559.81;5049522;28;20956;-62
2022/03/12 05:45:18;;;;;;;7.97;4.37;;;;;;;18.79;46.79;100559.81;5049650;28;20403;-62
2022/03/12 05:47:44;;;;;;;6.63;4.60;;;;;;;18.77;46.52;100567.13;5049135;28;20176;-62
2022/03/12 05:50:10;;;;;;;5.80;4.20;;;;;;;18.76;46.62;100571.19;5030058;28;20477;-62
2022/03/12 05:52:37;;;;;;;6.07;4.57;;;;;;;18.78;46.78;100569.63;5048221;28;20433;-62
2022/03/12 05:55:04;;;;;;;6.37;4.67;;;;;;;18.75;47.04;100573.22;5031641;28;20422;-62
2022/03/12 05:57:31;;;;;;;7.70;5.03;;;;;;;18.78;46.69;100575.34;5029506;28;20423;-62
2022/03/12 05:59:57;;;;;;;9.77;4.60;;;;;;;18.74;46.60;100574.44;5029490;28;20443;-62
2022/03/12 06:02:22;;;;;;;6.53;3.87;;;;;;;18.79;46.72;100581.88;5029481;28;20913;-62
2022/03/12 06:04:48;;;;;;;7.30;4.87;;;;;;;18.78;46.93;100581.06;5037448;28;20488;-62
2022/03/12 06:07:14;;;;;;;6.97;4.20;;;;;;;18.82;46.74;100566.84;5049838;28;20172;-62
2022/03/12 06:09:40;;;;;;;6.07;4.37;;;;;;;18.79;46.91;100570.44;5034900;28;20705;-62
2022/03/12 06:12:13;;;;;;;6.60;4.30;;;;;;;18.80;46.58;100566.34;5032115;28;20482;-62
2022/03/12 06:14:39;;;;;;;6.10;4.30;;;;;;;18.77;46.67;100579.38;5049774;28;20168;-62
2022/03/12 06:17:05;;;;;;;7.97;4.70;;;;;;;18.74;46.96;100576.44;5049732;28;20881;-62
2022/03/12 06:19:30;;;;;;;6.63;4.40;;;;;;;18.77;46.73;100567.13;5049294;28;20422;-62
2022/03/12 06:21:57;;;;;;;7.13;4.37;;;;;;;18.80;46.59;100572.91;5049288;28;20183;-62
2022/03/12 06:24:22;;;;;;;5.43;3.90;;;;;;;18.76;46.55;100569.16;5049300;28;20163;-62
2022/03/12 06:26:47;;;;;;;7.03;4.67;;;;;;;18.78;46.79;100568.78;5049456;28;20415;-62
2022/03/12 06:29:13;;;;;;;6.37;4.87;;;;;;;18.76;46.90;100577.72;5049144;28;20176;-62
2022/03/12 06:31:42;;;;;;;6.40;4.60;;;;;;;18.76;46.77;100577.72;5049053;28;20253;-62
2022/03/12 06:34:09;;;;;;;6.27;4.20;;;;;;;18.76;47.00;100571.19;5031813;28;20183;-62
2022/03/12 06:36:37;;;;;;;5.60;4.47;;;;;;;18.80;46.59;100578.63;5048796;28;20422;-62
2022/03/12 06:39:03;;;;;;;4.63;3.47;;;;;;;18.75;46.82;100576.06;5047478;28;20449;-62
2022/03/12 06:41:36;;;;;;;6.40;4.43;;;;;;;18.79;46.76;100577.00;5049053;28;20410;-62
2022/03/12 06:44:02;;;;;;;5.43;4.13;;;;;;;18.77;46.80;100585.09;5048992;28;20620;-62
2022/03/12 06:46:30;;;;;;;5.07;3.77;;;;;;;18.78;46.54;100583.09;5034111;28;20415;-62
2022/03/12 06:48:55;;;;;;;5.50;3.60;;;;;;;18.79;46.68;100591.28;5029012;28;20395;-62
2022/03/12 06:51:21;;;;;;;6.93;4.27;;;;;;;18.74;46.95;100590.75;5038560;28;20462;-62
2022/03/12 06:53:47;;;;;;;5.43;3.77;;;;;;;18.76;46.78;100588.38;5049018;28;20184;-62
2022/03/12 06:56:13;;;;;;;6.00;4.40;;;;;;;18.78;46.69;100591.66;5049381;28;20172;-62
2022/03/12 06:58:38;;;;;;;5.70;4.00;;;;;;;18.77;47.14;100590.00;5049584;28;20480;-62
2022/03/12 07:01:04;;;;;;;6.43;4.47;;;;;;;18.74;46.93;100582.16;5052530;28;20504;-62
2022/03/12 07:03:29;;;;;;;6.17;4.40;;;;;;;18.75;46.81;100581.81;5052718;28;20558;-62
2022/03/12 07:05:55;;;;;;;6.67;4.40;;;;;;;18.78;46.79;100583.09;5052357;28;20168;-62
2022/03/12 07:08:21;;;;;;;5.97;4.40;;;;;;;18.80;46.52;100580.66;5048870;28;20161;-62
2022/03/12 07:10:48;;;;;;;6.27;4.10;;;;;;;18.75;47.08;100581.81;5014069;28;20581;-62
2022/03/12 07:13:14;;;;;;;6.80;3.93;;;;;;;18.78;46.66;100586.78;5032592;28;20455;-62
2022/03/12 07:15:39;;;;;;;5.33;3.80;;;;;;;18.77;46.74;100590.81;5032855;28;20481;-62
2022/03/12 07:18:05;;;;;;;5.03;4.10;;;;;;;18.76;46.71;100579.78;5032390;28;20168;-62
2022/03/12 07:20:30;;;;;;;5.50;4.27;;;;;;;18.77;46.92;100582.25;5034526;28;20198;-62
2022/03/12 07:22:56;;;;;;;6.10;4.20;;;;;;;18.78;46.77;100585.94;5050488;28;20192;-62
2022/03/12 07:25:21;;;;;;;5.70;4.00;;;;;;;18.78;46.70;100577.34;5033697;28;20184;-62
2022/03/12 07:27:47;;;;;;;8.23;4.40;;;;;;;18.75;46.95;100584.66;5045366;28;20207;-62
2022/03/12 07:30:14;;;;;;;6.50;4.40;;;;;;;18.80;46.66;100577.81;5051627;28;20207;-62
2022/03/12 07:32:42;;;;;;;5.70;4.07;;;;;;;18.76;46.91;100586.31;5052262;28;20192;-62
2022/03/12 07:35:08;;;;;;;5.63;4.20;;;;;;;18.79;46.94;100582.72;5052283;28;20402;-62
2022/03/12 07:37:33;;;;;;;6.13;4.27;;;;;;;18.76;46.65;100582.63;5051289;28;20469;-62
2022/03/12 07:39:59;;;;;;;5.90;3.30;;;;;;;18.76;47.09;100582.63;5033596;28;21073;-62
2022/03/12 07:42:24;;;;;;;4.73;3.70;;;;;;;18.81;46.60;100586.00;5051873;28;20196;-62
2022/03/12 07:44:49;;;;;;;5.87;4.40;;;;;;;18.77;46.72;100582.25;5049825;28;20263;-62
2022/03/12 07:47:15;;;;;;;6.23;4.10;;;;;;;18.78;46.62;100585.94;5051504;28;20176;-62
2022/03/12 07:49:41;;;;;;;5.07;3.43;;;;;;;18.79;46.95;100591.28;5051447;28;20690;-62
2022/03/12 07:52:07;;;;;;;4.63;3.33;;;;;;;18.80;46.85;100590.09;5051324;28;20184;-62
2022/03/12 07:54:33;;;;;;;5.53;4.30;;;;;;;18.78;46.86;100592.50;5052017;28;20186;-62
2022/03/12 07:56:58;;;;;;;5.43;3.77;;;;;;;18.77;46.81;100585.09;5039946;28;20445;-62
2022/03/12 07:59:27;;;;;;;5.47;3.83;;;;;;;18.78;46.95;100592.50;5031223;28;20531;-62
2022/03/12 08:01:52;;;;;;;5.20;3.60;;;;;;;18.78;46.82;100592.50;5031778;28;20867;-62
2022/03/12 08:04:17;;;;;;;5.83;3.93;;;;;;;18.80;46.66;100592.09;5031642;28;20443;-62
2022/03/12 08:06:44;;;;;;;5.67;3.80;;;;;;;18.81;46.61;100596.66;5031350;28;20168;-62
2022/03/12 08:09:09;;;;;;;5.23;3.60;;;;;;;18.79;46.61;100599.88;5043450;28;20719;-62
2022/03/12 08:11:35;;;;;;;6.20;3.87;;;;;;;18.80;46.92;100604.38;5051079;28;20442;-62
2022/03/12 08:14:12;;;;;;;4.60;3.30;;;;;;;18.88;46.50;100605.38;5050345;28;20354;-62
2022/03/12 08:16:37;;;;;;;5.70;4.20;;;;;;;18.81;47.00;100608.91;5051577;28;20505;-62
2022/03/12 08:19:04;;;;;;;6.50;4.03;;;;;;;18.82;46.89;100613.41;5050296;28;20418;-62
2022/03/12 08:21:30;;;;;;;5.67;4.00;;;;;;;18.80;46.80;100620.69;5033019;28;20180;-62
2022/03/12 08:23:55;;;;;;;5.57;3.90;;;;;;;18.83;46.85;100619.97;5033686;28;20472;-62
2022/03/12 08:26:21;;;;;;;5.00;3.70;;;;;;;18.83;47.01;100614.25;5050898;28;20418;-62
2022/03/12 08:28:47;;;;;;;6.13;4.10;;;;;;;18.84;46.62;100613.88;5050692;28;20274;-62
2022/03/12 08:31:12;;;;;;;6.20;3.80;;;;;;;18.82;46.74;100621.19;5050399;28;20188;-62
2022/03/12 08:33:38;;;;;;;4.80;3.37;;;;;;;18.81;46.66;100616.66;5049697;28;20712;-62
2022/03/12 08:36:05;;;;;;;4.60;3.60;;;;;;;18.78;46.80;100615.38;5051028;28;20213;-62
2022/03/12 08:38:32;;;;;;;4.27;3.53;;;;;;;18.82;46.71;100627.72;5050858;28;20229;-62
2022/03/12 08:40:58;;;;;;;4.23;3.13;;;;;;;18.80;46.92;100624.41;5050415;28;20416;-62
2022/03/12 08:43:23;;;;;;;6.30;3.60;;;;;;;18.82;46.93;100621.97;5050527;28;20418;-62
2022/03/12 08:45:52;;;;;;;6.07;4.30;;;;;;;18.83;46.78;100626.53;5041849;28;20997;-62
2022/03/12 08:48:17;;;;;;;6.60;4.10;;;;;;;18.83;46.61;100629.38;5030405;28;20238;-62
2022/03/12 08:50:47;;;;;;;5.43;3.93;;;;;;;18.83;46.57;100634.28;5034956;28;20447;-62
2022/03/12 08:53:12;;;;;;;6.53;3.80;;;;;;;18.81;47.06;100633.84;5050255;28;20174;-62
2022/03/12 08:55:38;;;;;;;4.60;3.60;;;;;;;18.81;46.78;100631.78;5041638;28;20906;-62
2022/03/12 08:58:04;;;;;;;5.43;4.00;;;;;;;18.81;46.68;100626.06;5030275;28;20604;-62
2022/03/12 09:00:30;;;;;;;5.33;3.97;;;;;;;18.82;46.87;100626.91;5030236;28;20490;-62
2022/03/12 09:02:55;;;;;;;5.60;3.70;;;;;;;18.82;46.74;100629.75;5030115;28;20172;-62
2022/03/12 09:05:21;;;;;;;5.10;3.40;;;;;;;18.80;47.04;100632.16;5030210;28;20294;-62
2022/03/12 09:07:48;;;;;;;5.40;3.60;;;;;;;18.81;46.99;100633.84;5034449;28;20171;-62
2022/03/12 09:10:14;;;;;;;5.43;3.70;;;;;;;18.80;46.96;100637.88;5049762;28;20224;-62
2022/03/12 09:12:40;;;;;;;5.73;4.23;;;;;;;18.79;46.90;100633.34;5050218;28;20906;-62
2022/03/12 09:15:07;;;;;;;5.30;3.70;;;;;;;18.79;47.00;100628.47;5047301;28;20175;-62
2022/03/12 09:17:32;;;;;;;4.40;3.33;;;;;;;18.80;47.02;100633.00;5011128;28;20973;-62
2022/03/12 09:19:58;;;;;;;5.30;3.60;;;;;;;18.80;47.16;100624.41;5028189;28;20506;-62
2022/03/12 09:22:23;;;;;;;5.60;3.77;;;;;;;18.81;46.76;100613.81;5048178;28;20184;-62
2022/03/12 09:24:49;;;;;;;5.37;3.87;;;;;;;18.82;46.79;100615.47;5049884;28;20163;-62
2022/03/12 09:27:15;;;;;;;5.43;3.90;;;;;;;18.80;47.21;100617.84;5049983;28;20196;-62
2022/03/12 09:29:41;;;;;;;5.90;4.10;;;;;;;18.79;47.04;100611.31;5049939;28;20234;-62
2022/03/12 09:32:08;;;;;;;5.73;3.60;;;;;;;18.78;46.85;100615.38;5048962;28;20254;-62
2022/03/12 09:34:34;;;;;;;5.13;3.30;;;;;;;18.79;47.10;100613.34;5032603;28;20573;-62
2022/03/12 09:37:00;;;;;;;4.80;3.10;;;;;;;18.80;46.63;100618.69;5049856;28;20410;-62
2022/03/12 09:39:26;;;;;;;6.13;3.93;;;;;;;18.81;47.08;100619.53;5048981;28;20857;-62
2022/03/12 09:41:52;;;;;;;4.33;2.93;;;;;;;18.80;47.03;100623.56;5049555;28;20418;-62
2022/03/12 09:44:17;;;;;;;5.03;3.77;;;;;;;18.80;46.88;100612.13;5049408;28;20542;-62
2022/03/12 09:46:43;;;;;;;4.83;3.30;;;;;;;18.80;47.07;100624.41;5049641;28;20255;-62
2022/03/12 09:49:11;;;;;;;4.53;3.47;;;;;;;18.81;46.92;100625.25;5049424;28;20171;-61
2022/03/12 09:51:36;;;;;;;5.50;3.77;;;;;;;18.83;46.94;100628.56;5048636;28;20203;-62
2022/03/12 09:54:02;;;;;;;5.47;3.60;;;;;;;18.81;47.39;100620.34;5048791;28;20921;-62
2022/03/12 09:56:27;;;;;;;4.90;3.40;;;;;;;18.81;46.92;100614.63;5049687;28;20170;-62
2022/03/12 09:58:52;;;;;;;5.00;2.97;;;;;;;18.83;47.14;100614.25;5048995;28;20654;-61
2022/03/12 10:01:18;;;;;;;5.03;3.70;;;;;;;18.84;46.84;100613.03;5041049;28;20184;-61
2022/03/12 10:03:43;;;;;;;5.10;3.80;;;;;;;18.83;47.02;100605.66;5029143;28;20682;-61
2022/03/12 10:06:10;;;;;;;7.33;3.90;;;;;;;18.83;46.86;100614.25;5039710;28;20172;-61
2022/03/12 10:08:36;;;;;;;4.03;2.90;;;;;;;18.83;46.62;100600.78;5048987;28;20239;-61
2022/03/12 10:11:01;;;;;;;5.67;4.10;;;;;;;18.83;47.00;100600.78;5048265;28;20458;-61
2022/03/12 10:13:27;;;;;;;5.17;3.23;;;;;;;18.84;47.20;100605.28;5048770;28;20696;-61
2022/03/12 10:15:52;;;;;;;5.83;3.70;;;;;;;18.83;46.97;100600.78;5048902;28;20175;-62
2022/03/12 10:18:20;;;;;;;4.90;3.40;;;;;;;18.84;47.05;100602.44;5049284;28;20175;-62
2022/03/12 10:20:46;;;;;;;5.10;3.27;;;;;;;18.83;47.02;100600.78;5048389;28;20708;-61
2022/03/12 10:23:11;;;;;;;4.87;3.60;;;;;;;18.84;47.01;100602.44;5048677;28;20422;-61
2022/03/12 10:25:38;;;;;;;4.30;3.40;;;;;;;18.84;46.87;100596.72;5049282;28;20176;-61
2022/03/12 10:28:03;;;;;;;5.37;3.50;;;;;;;18.85;46.85;100597.53;5048762;28;20174;-61
2022/03/12 10:30:29;;;;;;;5.07;3.40;;;;;;;18.85;47.19;100597.53;5048533;28;20937;-61
2022/03/12 10:32:54;;;;;;;5.13;3.77;;;;;;;18.86;46.51;100594.28;5052426;28;20176;-61
2022/03/12 10:35:20;;;;;;;4.73;3.23;;;;;;;18.85;46.95;100598.38;5053467;28;20171;-61
2022/03/12 10:37:50;;;;;;;4.23;3.17;;;;;;;18.85;46.93;100594.66;5052862;28;20186;-61
2022/03/12 10:40:17;;;;;;;6.13;3.53;;;;;;;18.89;46.87;100601.28;5052369;28;20414;-60
2022/03/12 10:42:50;;;;;;;5.70;3.70;;;;;;;18.87;46.79;100595.13;5052744;28;20886;-61
2022/03/12 10:45:23;;;;;;;4.93;3.77;;;;;;;18.87;46.46;100595.94;5052990;28;20442;-61
2022/03/12 10:47:50;;;;;;;5.73;3.97;;;;;;;18.84;46.89;100591.00;5052883;28;20868;-60
2022/03/12 10:50:17;;;;;;;6.50;3.80;;;;;;;18.85;46.80;100591.81;5052110;28;20442;-60
2022/03/12 10:52:49;;;;;;;6.10;3.90;;;;;;;18.85;46.83;100591.81;5041806;28;20425;-60
2022/03/12 10:55:18;;;;;;;7.03;4.07;;;;;;;18.83;47.05;100575.03;5032503;28;20399;-60
2022/03/12 10:57:57;;;;;;;4.73;3.63;;;;;;;18.86;46.61;100582.84;5032595;28;20407;-61
2022/03/12 11:00:26;;;;;;;5.70;3.77;;;;;;;18.87;46.65;100578.78;5032333;28;20769;-60
2022/03/12 11:02:57;;;;;;;6.50;3.50;;;;;;;18.85;46.97;100568.91;5032587;28;20426;-60
2022/03/12 11:05:34;;;;;;;4.77;3.77;;;;;;;18.86;46.71;100577.13;5035685;28;21027;-60
2022/03/12 11:08:20;;;;;;;4.90;3.63;;;;;;;18.87;46.78;100572.25;5050802;28;20442;-60
2022/03/12 11:11:14;;;;;;;4.30;3.13;;;;;;;18.84;46.79;100568.09;5012543;28;20483;-61
2022/03/12 11:13:48;;;;;;;4.50;3.57;;;;;;;18.86;46.92;100565.69;5013022;28;20958;-60
2022/03/12 11:16:21;;;;;;;5.10;3.73;;;;;;;18.86;47.03;100571.41;5012665;28;20437;-60
2022/03/12 11:18:53;;;;;;;3.90;3.00;;;;;;;18.87;46.78;100567.34;5009429;28;20413;-60
2022/03/12 11:21:37;;;;;;;5.43;3.50;;;;;;;18.88;46.89;100571.03;5012293;28;20436;-60
2022/03/12 11:24:25;;;;;;;6.30;3.90;;;;;;;18.87;47.00;100569.38;5012662;28;20411;-60